Aviation Digital Data Service (ADDS)

Output produced by METARs form (0006 UTC 19 August 2019)
found at http://www.aviationweather.gov/metar/data/
 
METAR text: FZAA 182300Z 00000KT 6000 SCT016 24/18 Q1014 NOSIG
Conditions at: FZAA (KINSHASA/N'DJILI, CD) observed 2300 UTC 18 August 2019
Temperature: 24.0°C (75°F)
Dewpoint: 18.0°C (64°F) [RH = 69%]
Pressure (altimeter): 29.94 inches Hg (1014.0 mb)
Winds: calm
Visibility: 4 miles ( 6 km)
Ceiling: at least 12,000 feet AGL
Clouds: scattered clouds at 1600 feet AGL
Weather: no significant weather observed at this time

METAR text: FZAA 182200Z 00000KT 4000 BR NSC 25/18 Q1014 NOSIG
Conditions at: FZAA (KINSHASA/N'DJILI, CD) observed 2200 UTC 18 August 2019
Temperature: 25.0°C (77°F)
Dewpoint: 18.0°C (64°F) [RH = 65%]
Pressure (altimeter): 29.94 inches Hg (1014.0 mb)
Winds: calm
Visibility: 2.49 miles (4.01 km)
Ceiling: at least 12,000 feet AGL
Clouds: sky clear below 12,000 feet AGL
Weather: BR  (mist)

METAR text: FZAA 182100Z 25006KT 4000 BR NSC 25/18 Q1013 BECMG 6000
Conditions at: FZAA (KINSHASA/N'DJILI, CD) observed 2100 UTC 18 August 2019
Temperature: 25.0°C (77°F)
Dewpoint: 18.0°C (64°F) [RH = 65%]
Pressure (altimeter): 29.91 inches Hg (1013.0 mb)
Winds: from the WSW (250 degrees) at 7 MPH (6 knots; 3.1 m/s)
Visibility: 2.49 miles (4.01 km)
Ceiling: at least 12,000 feet AGL
Clouds: sky clear below 12,000 feet AGL
Weather: BR  (mist)

METAR text: FZAA 182000Z 26008KT 4000 BR NSC 27/19 Q1013 BECMG 6000
Conditions at: FZAA (KINSHASA/N'DJILI, CD) observed 2000 UTC 18 August 2019
Temperature: 27.0°C (81°F)
Dewpoint: 19.0°C (66°F) [RH = 62%]
Pressure (altimeter): 29.91 inches Hg (1013.0 mb)
Winds: from the W (260 degrees) at 9 MPH (8 knots; 4.1 m/s)
Visibility: 2.49 miles (4.01 km)
Ceiling: at least 12,000 feet AGL
Clouds: sky clear below 12,000 feet AGL
Weather: BR  (mist)

METAR text: FZAA 181900Z 31006KT 4000 BR NSC 27/19 Q1012 NOSIG
Conditions at: FZAA (KINSHASA/N'DJILI, CD) observed 1900 UTC 18 August 2019
Temperature: 27.0°C (81°F)
Dewpoint: 19.0°C (66°F) [RH = 62%]
Pressure (altimeter): 29.88 inches Hg (1012.0 mb)
Winds: from the NW (310 degrees) at 7 MPH (6 knots; 3.1 m/s)
Visibility: 2.49 miles (4.01 km)
Ceiling: at least 12,000 feet AGL
Clouds: sky clear below 12,000 feet AGL
Weather: BR  (mist)

METAR text: FZAA 181800Z 27008KT 5000 HZ NSC 29/19 Q1011
Conditions at: FZAA (KINSHASA/N'DJILI, CD) observed 1800 UTC 18 August 2019
Temperature: 29.0°C (84°F)
Dewpoint: 19.0°C (66°F) [RH = 55%]
Pressure (altimeter): 29.85 inches Hg (1011.0 mb)
Winds: from the W (270 degrees) at 9 MPH (8 knots; 4.1 m/s)
Visibility: 3 miles ( 5 km)
Ceiling: at least 12,000 feet AGL
Clouds: sky clear below 12,000 feet AGL
Weather: HZ  (haze)

METAR text: FZAA 181600Z 29004KT 6000 NSC 30/19 Q1010 NOSIG
Conditions at: FZAA (KINSHASA/N'DJILI, CD) observed 1600 UTC 18 August 2019
Temperature: 30.0°C (86°F)
Dewpoint: 19.0°C (66°F) [RH = 52%]
Pressure (altimeter): 29.82 inches Hg (1010.0 mb)
Winds: from the WNW (290 degrees) at 5 MPH (4 knots; 2.1 m/s)
Visibility: 4 miles ( 6 km)
Ceiling: at least 12,000 feet AGL
Clouds: sky clear below 12,000 feet AGL
Weather: no significant weather observed at this time

METAR text: FZAA 181500Z 29008KT 6000 NSC 30/19 Q1011 NOSIG
Conditions at: FZAA (KINSHASA/N'DJILI, CD) observed 1500 UTC 18 August 2019
Temperature: 30.0°C (86°F)
Dewpoint: 19.0°C (66°F) [RH = 52%]
Pressure (altimeter): 29.85 inches Hg (1011.0 mb)
Winds: from the WNW (290 degrees) at 9 MPH (8 knots; 4.1 m/s)
Visibility: 4 miles ( 6 km)
Ceiling: at least 12,000 feet AGL
Clouds: sky clear below 12,000 feet AGL
Weather: no significant weather observed at this time

METAR text: FZAA 181400Z 28010KT 6000 FEW022 30/18 Q1011 NOSIG
Conditions at: FZAA (KINSHASA/N'DJILI, CD) observed 1400 UTC 18 August 2019
Temperature: 30.0°C (86°F)
Dewpoint: 18.0°C (64°F) [RH = 49%]
Pressure (altimeter): 29.85 inches Hg (1011.0 mb)
Winds: from the W (280 degrees) at 12 MPH (10 knots; 5.1 m/s)
Visibility: 4 miles ( 6 km)
Ceiling: at least 12,000 feet AGL
Clouds: few clouds at 2200 feet AGL
Weather: no significant weather observed at this time

METAR text: FZAA 181300Z 26010KT 6000 FEW022 30/18 Q1012 NOSIG
Conditions at: FZAA (KINSHASA/N'DJILI, CD) observed 1300 UTC 18 August 2019
Temperature: 30.0°C (86°F)
Dewpoint: 18.0°C (64°F) [RH = 49%]
Pressure (altimeter): 29.88 inches Hg (1012.0 mb)
Winds: from the W (260 degrees) at 12 MPH (10 knots; 5.1 m/s)
Visibility: 4 miles ( 6 km)
Ceiling: at least 12,000 feet AGL
Clouds: few clouds at 2200 feet AGL
Weather: no significant weather observed at this time

METAR text: FZAA 181200Z 24010KT 6000 FEW022 30/18 Q1013 NOSIG
Conditions at: FZAA (KINSHASA/N'DJILI, CD) observed 1200 UTC 18 August 2019
Temperature: 30.0°C (86°F)
Dewpoint: 18.0°C (64°F) [RH = 49%]
Pressure (altimeter): 29.91 inches Hg (1013.0 mb)
Winds: from the WSW (240 degrees) at 12 MPH (10 knots; 5.1 m/s)
Visibility: 4 miles ( 6 km)
Ceiling: at least 12,000 feet AGL
Clouds: few clouds at 2200 feet AGL
Weather: no significant weather observed at this time

METAR text: FZAA 181100Z 24010KT 6000 SCT020 28/18 Q1014 NOSIG
Conditions at: FZAA (KINSHASA/N'DJILI, CD) observed 1100 UTC 18 August 2019
Temperature: 28.0°C (82°F)
Dewpoint: 18.0°C (64°F) [RH = 55%]
Pressure (altimeter): 29.94 inches Hg (1014.0 mb)
Winds: from the WSW (240 degrees) at 12 MPH (10 knots; 5.1 m/s)
Visibility: 4 miles ( 6 km)
Ceiling: at least 12,000 feet AGL
Clouds: scattered clouds at 2000 feet AGL
Weather: no significant weather observed at this time

METAR text: FZAA 181000Z 24008KT 6000 SCT018 26/18 Q1015 NOSIG
Conditions at: FZAA (KINSHASA/N'DJILI, CD) observed 1000 UTC 18 August 2019
Temperature: 26.0°C (79°F)
Dewpoint: 18.0°C (64°F) [RH = 61%]
Pressure (altimeter): 29.97 inches Hg (1015.0 mb)
Winds: from the WSW (240 degrees) at 9 MPH (8 knots; 4.1 m/s)
Visibility: 4 miles ( 6 km)
Ceiling: at least 12,000 feet AGL
Clouds: scattered clouds at 1800 feet AGL
Weather: no significant weather observed at this time

METAR text: FZAA 180900Z 24010KT 6000 SCT016 25/18 Q1016 NOSIG
Conditions at: FZAA (KINSHASA/N'DJILI, CD) observed 0900 UTC 18 August 2019
Temperature: 25.0°C (77°F)
Dewpoint: 18.0°C (64°F) [RH = 65%]
Pressure (altimeter): 30.00 inches Hg (1016.0 mb)
Winds: from the WSW (240 degrees) at 12 MPH (10 knots; 5.1 m/s)
Visibility: 4 miles ( 6 km)
Ceiling: at least 12,000 feet AGL
Clouds: scattered clouds at 1600 feet AGL
Weather: no significant weather observed at this time

METAR text: FZAA 180800Z 00000KT 6000 SCT016 24/19 Q1016 NOSIG
Conditions at: FZAA (KINSHASA/N'DJILI, CD) observed 0800 UTC 18 August 2019
Temperature: 24.0°C (75°F)
Dewpoint: 19.0°C (66°F) [RH = 74%]
Pressure (altimeter): 30.00 inches Hg (1016.0 mb)
Winds: calm
Visibility: 4 miles ( 6 km)
Ceiling: at least 12,000 feet AGL
Clouds: scattered clouds at 1600 feet AGL
Weather: no significant weather observed at this time

METAR text: FZAA 180700Z 00000KT 4000 BR BKN014 23/18 Q1016 NOSIG
Conditions at: FZAA (KINSHASA/N'DJILI, CD) observed 0700 UTC 18 August 2019
Temperature: 23.0°C (73°F)
Dewpoint: 18.0°C (64°F) [RH = 73%]
Pressure (altimeter): 30.00 inches Hg (1016.0 mb)
Winds: calm
Visibility: 2.49 miles (4.01 km)
Ceiling: 1400 feet AGL
Clouds: broken clouds at 1400 feet AGL
Weather: BR  (mist)

METAR text: FZAA 180600Z 00000KT 4000 BR BKN014 22/18 Q1015 NOSIG
Conditions at: FZAA (KINSHASA/N'DJILI, CD) observed 0600 UTC 18 August 2019
Temperature: 22.0°C (72°F)
Dewpoint: 18.0°C (64°F) [RH = 78%]
Pressure (altimeter): 29.97 inches Hg (1015.0 mb)
Winds: calm
Visibility: 2.49 miles (4.01 km)
Ceiling: 1400 feet AGL
Clouds: broken clouds at 1400 feet AGL
Weather: BR  (mist)

METAR text: FZAA 180500Z 00000KT 6000 BKN014 22/18 Q1015 NOSIG
Conditions at: FZAA (KINSHASA/N'DJILI, CD) observed 0500 UTC 18 August 2019
Temperature: 22.0°C (72°F)
Dewpoint: 18.0°C (64°F) [RH = 78%]
Pressure (altimeter): 29.97 inches Hg (1015.0 mb)
Winds: calm
Visibility: 4 miles ( 6 km)
Ceiling: 1400 feet AGL
Clouds: broken clouds at 1400 feet AGL
Weather: no significant weather observed at this time

METAR text: FZAA 180400Z 00000KT 6000 SCT014 22/18 Q1015 NOSIG
Conditions at: FZAA (KINSHASA/N'DJILI, CD) observed 0400 UTC 18 August 2019
Temperature: 22.0°C (72°F)
Dewpoint: 18.0°C (64°F) [RH = 78%]
Pressure (altimeter): 29.97 inches Hg (1015.0 mb)
Winds: calm
Visibility: 4 miles ( 6 km)
Ceiling: at least 12,000 feet AGL
Clouds: scattered clouds at 1400 feet AGL
Weather: no significant weather observed at this time

METAR text: FZAA 180300Z 00000KT 6000 BKN014 22/18 Q1014 NOSIG
Conditions at: FZAA (KINSHASA/N'DJILI, CD) observed 0300 UTC 18 August 2019
Temperature: 22.0°C (72°F)
Dewpoint: 18.0°C (64°F) [RH = 78%]
Pressure (altimeter): 29.94 inches Hg (1014.0 mb)
Winds: calm
Visibility: 4 miles ( 6 km)
Ceiling: 1400 feet AGL
Clouds: broken clouds at 1400 feet AGL
Weather: no significant weather observed at this time

METAR text: FZAA 180200Z 00000KT 6000 BKN014 22/18 Q1015 NOSIG
Conditions at: FZAA (KINSHASA/N'DJILI, CD) observed 0200 UTC 18 August 2019
Temperature: 22.0°C (72°F)
Dewpoint: 18.0°C (64°F) [RH = 78%]
Pressure (altimeter): 29.97 inches Hg (1015.0 mb)
Winds: calm
Visibility: 4 miles ( 6 km)
Ceiling: 1400 feet AGL
Clouds: broken clouds at 1400 feet AGL
Weather: no significant weather observed at this time

METAR text: FZAA 180100Z 00000KT 6000 FEW014 22/18 Q1015 NOSIG
Conditions at: FZAA (KINSHASA/N'DJILI, CD) observed 0100 UTC 18 August 2019
Temperature: 22.0°C (72°F)
Dewpoint: 18.0°C (64°F) [RH = 78%]
Pressure (altimeter): 29.97 inches Hg (1015.0 mb)
Winds: calm
Visibility: 4 miles ( 6 km)
Ceiling: at least 12,000 feet AGL
Clouds: few clouds at 1400 feet AGL
Weather: no significant weather observed at this time

METAR text: FZAA 180000Z 00000KT 6000 FEW014 22/18 Q1015 NOSIG
Conditions at: FZAA (KINSHASA/N'DJILI, CD) observed 0000 UTC 18 August 2019
Temperature: 22.0°C (72°F)
Dewpoint: 18.0°C (64°F) [RH = 78%]
Pressure (altimeter): 29.97 inches Hg (1015.0 mb)
Winds: calm
Visibility: 4 miles ( 6 km)
Ceiling: at least 12,000 feet AGL
Clouds: few clouds at 1400 feet AGL
Weather: no significant weather observed at this time

METAR text: FZAA 172300Z 00000KT 6000 SCT015 22/18 Q1015 NOSIG
Conditions at: FZAA (KINSHASA/N'DJILI, CD) observed 2300 UTC 17 August 2019
Temperature: 22.0°C (72°F)
Dewpoint: 18.0°C (64°F) [RH = 78%]
Pressure (altimeter): 29.97 inches Hg (1015.0 mb)
Winds: calm
Visibility: 4 miles ( 6 km)
Ceiling: at least 12,000 feet AGL
Clouds: scattered clouds at 1500 feet AGL
Weather: no significant weather observed at this time

METAR text: FZAA 172200Z 00000KT 6000 SCT015 23/18 Q1015 NOSIG
Conditions at: FZAA (KINSHASA/N'DJILI, CD) observed 2200 UTC 17 August 2019
Temperature: 23.0°C (73°F)
Dewpoint: 18.0°C (64°F) [RH = 73%]
Pressure (altimeter): 29.97 inches Hg (1015.0 mb)
Winds: calm
Visibility: 4 miles ( 6 km)
Ceiling: at least 12,000 feet AGL
Clouds: scattered clouds at 1500 feet AGL
Weather: no significant weather observed at this time

METAR text: FZAA 172100Z 00000KT 6000 SCT016 24/18 Q1015 NOSIG
Conditions at: FZAA (KINSHASA/N'DJILI, CD) observed 2100 UTC 17 August 2019
Temperature: 24.0°C (75°F)
Dewpoint: 18.0°C (64°F) [RH = 69%]
Pressure (altimeter): 29.97 inches Hg (1015.0 mb)
Winds: calm
Visibility: 4 miles ( 6 km)
Ceiling: at least 12,000 feet AGL
Clouds: scattered clouds at 1600 feet AGL
Weather: no significant weather observed at this time

METAR text: FZAA 172000Z 27006KT 6000 BKN018 25/18 Q1014 NOSIG
Conditions at: FZAA (KINSHASA/N'DJILI, CD) observed 2000 UTC 17 August 2019
Temperature: 25.0°C (77°F)
Dewpoint: 18.0°C (64°F) [RH = 65%]
Pressure (altimeter): 29.94 inches Hg (1014.0 mb)
Winds: from the W (270 degrees) at 7 MPH (6 knots; 3.1 m/s)
Visibility: 4 miles ( 6 km)
Ceiling: 1800 feet AGL
Clouds: broken clouds at 1800 feet AGL
Weather: no significant weather observed at this time

METAR text: FZAA 171900Z 27010KT 6000 BKN018 26/18 Q1014 NOSIG
Conditions at: FZAA (KINSHASA/N'DJILI, CD) observed 1900 UTC 17 August 2019
Temperature: 26.0°C (79°F)
Dewpoint: 18.0°C (64°F) [RH = 61%]
Pressure (altimeter): 29.94 inches Hg (1014.0 mb)
Winds: from the W (270 degrees) at 12 MPH (10 knots; 5.1 m/s)
Visibility: 4 miles ( 6 km)
Ceiling: 1800 feet AGL
Clouds: broken clouds at 1800 feet AGL
Weather: no significant weather observed at this time

METAR text: FZAA 171800Z 28008KT 7000 BKN018 26/17 Q1013 NOSIG
Conditions at: FZAA (KINSHASA/N'DJILI, CD) observed 1800 UTC 17 August 2019
Temperature: 26.0°C (79°F)
Dewpoint: 17.0°C (63°F) [RH = 58%]
Pressure (altimeter): 29.91 inches Hg (1013.0 mb)
Winds: from the W (280 degrees) at 9 MPH (8 knots; 4.1 m/s)
Visibility: 4 miles ( 7 km)
Ceiling: 1800 feet AGL
Clouds: broken clouds at 1800 feet AGL
Weather: no significant weather observed at this time

METAR text: FZAA 171700Z 28012KT 6000 BKN020 27/17 Q1012 NOSIG
Conditions at: FZAA (KINSHASA/N'DJILI, CD) observed 1700 UTC 17 August 2019
Temperature: 27.0°C (81°F)
Dewpoint: 17.0°C (63°F) [RH = 54%]
Pressure (altimeter): 29.88 inches Hg (1012.0 mb)
Winds: from the W (280 degrees) at 14 MPH (12 knots; 6.2 m/s)
Visibility: 4 miles ( 6 km)
Ceiling: 2000 feet AGL
Clouds: broken clouds at 2000 feet AGL
Weather: no significant weather observed at this time

METAR text: FZAA 171600Z 27010KT 6000 BKN020 27/17 Q1012 NOSIG
Conditions at: FZAA (KINSHASA/N'DJILI, CD) observed 1600 UTC 17 August 2019
Temperature: 27.0°C (81°F)
Dewpoint: 17.0°C (63°F) [RH = 54%]
Pressure (altimeter): 29.88 inches Hg (1012.0 mb)
Winds: from the W (270 degrees) at 12 MPH (10 knots; 5.1 m/s)
Visibility: 4 miles ( 6 km)
Ceiling: 2000 feet AGL
Clouds: broken clouds at 2000 feet AGL
Weather: no significant weather observed at this time

METAR text: FZAA 171400Z 25008KT 6000 BKN020 28/17 Q1012 NOSIG
Conditions at: FZAA (KINSHASA/N'DJILI, CD) observed 1400 UTC 17 August 2019
Temperature: 28.0°C (82°F)
Dewpoint: 17.0°C (63°F) [RH = 51%]
Pressure (altimeter): 29.88 inches Hg (1012.0 mb)
Winds: from the WSW (250 degrees) at 9 MPH (8 knots; 4.1 m/s)
Visibility: 4 miles ( 6 km)
Ceiling: 2000 feet AGL
Clouds: broken clouds at 2000 feet AGL
Weather: no significant weather observed at this time

METAR text: FZAA 171300Z 26008KT 6000 BKN020 28/17 Q1013 NOSIG
Conditions at: FZAA (KINSHASA/N'DJILI, CD) observed 1300 UTC 17 August 2019
Temperature: 28.0°C (82°F)
Dewpoint: 17.0°C (63°F) [RH = 51%]
Pressure (altimeter): 29.91 inches Hg (1013.0 mb)
Winds: from the W (260 degrees) at 9 MPH (8 knots; 4.1 m/s)
Visibility: 4 miles ( 6 km)
Ceiling: 2000 feet AGL
Clouds: broken clouds at 2000 feet AGL
Weather: no significant weather observed at this time

Forecast for: FZAA (KINSHASA/N'DJILI, CD)
Text: TAF FZAA 182300Z 1900/2006 00000KT 4000 BR NSC
Forecast period: 0000 to 1000 UTC 19 August 2019
Forecast type: FROM: standard forecast or significant change
Winds: calm
Visibility: 2.49 miles (4.01 km)
Ceiling: unknown
Clouds: missing
Weather: BR  (mist)
Text: BECMG 1910/1912 28010KT 7000 NSW SCT022
Forecast period: 1000 to 1500 UTC 19 August 2019
Forecast type: BECOMING: Conditions expected to become as follows by 1200 UTC 19 August 2019
Winds: from the W (280 degrees) at 12 MPH (10 knots; 5.1 m/s)
Visibility: 4 miles (7 km)
Ceiling: at least 12,000 feet AGL
Clouds: scattered clouds at 2200 feet AGL
Weather: NSW  (no significant weather)
Text: BECMG 1915/1917 22004KT NSC
Forecast period: 1500 UTC 19 August 2019 to 0600 UTC 20 August 2019
Forecast type: BECOMING: Conditions expected to become as follows by 1700 UTC 19 August 2019
Winds: from the SW (220 degrees) at 5 MPH (4 knots; 2.1 m/s)
Visibility: 4 miles (7 km)
Ceiling: unknown
Clouds: missing
Weather: NSW  (no significant weather)